sensor_id;sensor_type;location;lat;lon;timestamp;pressure;altitude;pressure_sealevel;temperature;humidity
81033;BME280;70514;52.478;6.102;2023-11-19T00:00:20;100825.44;;;13.03;81.04
81033;BME280;70514;52.478;6.102;2023-11-19T00:02:47;100823.69;;;13.08;81.84
81033;BME280;70514;52.478;6.102;2023-11-19T00:05:15;100818.53;;;13.16;78.33
81033;BME280;70514;52.478;6.102;2023-11-19T00:07:43;100806.47;;;13.19;80.66
81033;BME280;70514;52.478;6.102;2023-11-19T00:10:13;100800.44;;;13.17;79.88
81033;BME280;70514;52.478;6.102;2023-11-19T00:12:43;100797.00;;;13.12;80.89
81033;BME280;70514;52.478;6.102;2023-11-19T00:15:15;100798.72;;;13.10;80.83
81033;BME280;70514;52.478;6.102;2023-11-19T00:17:47;100809.06;;;13.03;82.88
81033;BME280;70514;52.478;6.102;2023-11-19T00:20:18;100809.06;;;13.04;79.52
81033;BME280;70514;52.478;6.102;2023-11-19T00:22:46;100802.19;;;13.14;80.45
81033;BME280;70514;52.478;6.102;2023-11-19T00:25:18;100800.44;;;13.11;82.77
81033;BME280;70514;52.478;6.102;2023-11-19T00:27:46;100799.56;;;13.09;79.81
81033;BME280;70514;52.478;6.102;2023-11-19T00:30:14;100790.97;;;13.03;84.31
81033;BME280;70514;52.478;6.102;2023-11-19T00:32:43;100792.69;;;13.05;84.26
81033;BME280;70514;52.478;6.102;2023-11-19T00:35:11;100795.28;;;13.10;78.91
81033;BME280;70514;52.478;6.102;2023-11-19T00:37:39;100784.94;;;13.14;77.71
81033;BME280;70514;52.478;6.102;2023-11-19T00:40:08;100778.88;;;13.17;78.97
81033;BME280;70514;52.478;6.102;2023-11-19T00:42:38;100777.19;;;13.11;83.78
81033;BME280;70514;52.478;6.102;2023-11-19T00:45:06;100760.81;;;13.12;82.32
81033;BME280;70514;52.478;6.102;2023-11-19T00:47:38;100734.94;;;13.08;78.39
81033;BME280;70514;52.478;6.102;2023-11-19T00:50:06;100754.75;;;13.16;77.92
81033;BME280;70514;52.478;6.102;2023-11-19T00:52:37;100741.84;;;13.19;77.74
81033;BME280;70514;52.478;6.102;2023-11-19T00:55:06;100742.69;;;13.25;77.36
81033;BME280;70514;52.478;6.102;2023-11-19T00:57:35;100728.88;;;13.26;79.51
81033;BME280;70514;52.478;6.102;2023-11-19T01:00:05;100720.28;;;13.19;76.66
81033;BME280;70514;52.478;6.102;2023-11-19T01:02:47;100734.09;;;13.13;78.67
81033;BME280;70514;52.478;6.102;2023-11-19T01:05:20;100742.72;;;13.15;78.68
81033;BME280;70514;52.478;6.102;2023-11-19T01:07:50;100754.78;;;13.13;78.35
81033;BME280;70514;52.478;6.102;2023-11-19T01:10:22;100753.00;;;13.11;81.96
81033;BME280;70514;52.478;6.102;2023-11-19T01:12:50;100756.50;;;13.11;80.91
81033;BME280;70514;52.478;6.102;2023-11-19T01:15:18;100757.34;;;13.18;80.61
81033;BME280;70514;52.478;6.102;2023-11-19T01:17:48;100761.63;;;13.24;78.90
81033;BME280;70514;52.478;6.102;2023-11-19T01:20:19;100760.78;;;13.25;78.63
81033;BME280;70514;52.478;6.102;2023-11-19T01:22:48;100752.19;;;13.07;79.91
81033;BME280;70514;52.478;6.102;2023-11-19T01:25:16;100759.94;;;13.18;83.12
81033;BME280;70514;52.478;6.102;2023-11-19T01:27:45;100758.22;;;13.14;80.67
81033;BME280;70514;52.478;6.102;2023-11-19T01:30:13;100753.91;;;13.21;79.96
81033;BME280;70514;52.478;6.102;2023-11-19T01:32:40;100755.59;;;13.25;79.20
81033;BME280;70514;52.478;6.102;2023-11-19T01:35:08;100746.16;;;13.21;77.38
81033;BME280;70514;52.478;6.102;2023-11-19T01:37:36;100740.13;;;13.15;81.58
81033;BME280;70514;52.478;6.102;2023-11-19T01:40:04;100738.41;;;13.11;77.61
81033;BME280;70514;52.478;6.102;2023-11-19T01:42:37;100729.78;;;13.05;78.08
81033;BME280;70514;52.478;6.102;2023-11-19T01:45:09;100713.41;;;13.12;80.47
81033;BME280;70514;52.478;6.102;2023-11-19T01:47:38;100714.25;;;13.06;80.42
81033;BME280;70514;52.478;6.102;2023-11-19T01:50:06;100706.53;;;13.15;79.34
81033;BME280;70514;52.478;6.102;2023-11-19T01:52:35;100715.97;;;13.26;78.79
81033;BME280;70514;52.478;6.102;2023-11-19T01:55:07;100723.72;;;13.16;77.25
81033;BME280;70514;52.478;6.102;2023-11-19T01:57:38;100712.50;;;13.22;78.16
81033;BME280;70514;52.478;6.102;2023-11-19T02:00:08;100717.66;;;13.31;76.62
81033;BME280;70514;52.478;6.102;2023-11-19T02:02:48;100711.66;;;13.25;76.72
81033;BME280;70514;52.478;6.102;2023-11-19T02:05:16;100697.91;;;13.10;79.17
81033;BME280;70514;52.478;6.102;2023-11-19T02:07:45;100698.72;;;13.11;80.97
81033;BME280;70514;52.478;6.102;2023-11-19T02:10:13;100706.53;;;13.12;81.39
81033;BME280;70514;52.478;6.102;2023-11-19T02:12:42;100711.66;;;13.06;79.24
81033;BME280;70514;52.478;6.102;2023-11-19T02:15:10;100720.28;;;13.08;78.53
81033;BME280;70514;52.478;6.102;2023-11-19T02:17:38;100724.63;;;13.05;78.69
81033;BME280;70514;52.478;6.102;2023-11-19T02:20:07;100729.78;;;13.03;81.70
81033;BME280;70514;52.478;6.102;2023-11-19T02:22:37;100716.88;;;13.03;78.96
81033;BME280;70514;52.478;6.102;2023-11-19T02:25:06;100718.63;;;12.95;80.78
81033;BME280;70514;52.478;6.102;2023-11-19T02:28:15;100730.66;;;12.96;80.00
81033;BME280;70514;52.478;6.102;2023-11-19T02:30:35;100720.31;;;13.10;79.60
81033;BME280;70514;52.478;6.102;2023-11-19T02:33:02;100725.47;;;13.14;79.07
81033;BME280;70514;52.478;6.102;2023-11-19T02:35:33;100716.81;;;13.11;81.33
81033;BME280;70514;52.478;6.102;2023-11-19T02:38:01;100713.41;;;13.07;82.66
81033;BME280;70514;52.478;6.102;2023-11-19T02:40:31;100722.03;;;13.14;78.86
81033;BME280;70514;52.478;6.102;2023-11-19T02:42:59;100725.47;;;13.08;80.26
81033;BME280;70514;52.478;6.102;2023-11-19T02:45:27;100721.16;;;13.09;78.32
81033;BME280;70514;52.478;6.102;2023-11-19T02:47:55;100728.94;;;13.13;78.34
81033;BME280;70514;52.478;6.102;2023-11-19T02:50:22;100722.03;;;13.09;83.96
81033;BME280;70514;52.478;6.102;2023-11-19T02:52:55;100725.56;;;12.80;84.79
81033;BME280;70514;52.478;6.102;2023-11-19T02:55:26;100730.69;;;12.87;84.33
81033;BME280;70514;52.478;6.102;2023-11-19T02:57:57;100716.91;;;12.87;80.60
81033;BME280;70514;52.478;6.102;2023-11-19T03:00:27;100722.06;;;12.91;81.68
81033;BME280;70514;52.478;6.102;2023-11-19T03:03:05;100716.88;;;12.97;81.50
81033;BME280;70514;52.478;6.102;2023-11-19T03:05:48;100714.34;;;12.88;86.23
81033;BME280;70514;52.478;6.102;2023-11-19T03:08:17;100715.16;;;12.90;81.08
81033;BME280;70514;52.478;6.102;2023-11-19T03:10:47;100716.03;;;12.94;84.31
81033;BME280;70514;52.478;6.102;2023-11-19T03:13:17;100718.66;;;12.89;82.96
81033;BME280;70514;52.478;6.102;2023-11-19T03:15:46;100722.09;;;12.88;84.21
81033;BME280;70514;52.478;6.102;2023-11-19T03:18:14;100722.06;;;12.97;78.53
81033;BME280;70514;52.478;6.102;2023-11-19T03:20:42;100715.22;;;12.84;81.64
81033;BME280;70514;52.478;6.102;2023-11-19T03:23:09;100724.63;;;12.97;83.30
81033;BME280;70514;52.478;6.102;2023-11-19T03:25:37;100722.94;;;12.89;79.64
81033;BME280;70514;52.478;6.102;2023-11-19T03:28:05;100721.22;;;12.89;80.46
81033;BME280;70514;52.478;6.102;2023-11-19T03:30:34;100734.97;;;13.05;80.49
81033;BME280;70514;52.478;6.102;2023-11-19T03:33:02;100733.22;;;13.07;84.05
81033;BME280;70514;52.478;6.102;2023-11-19T03:35:30;100731.59;;;12.77;88.33
81033;BME280;70514;52.478;6.102;2023-11-19T03:37:58;100719.50;;;12.93;80.17
81033;BME280;70514;52.478;6.102;2023-11-19T03:40:26;100720.38;;;12.76;88.01
81033;BME280;70514;52.478;6.102;2023-11-19T03:42:56;100728.13;;;12.83;85.54
81033;BME280;70514;52.478;6.102;2023-11-19T03:45:24;100709.22;;;12.68;81.56
81033;BME280;70514;52.478;6.102;2023-11-19T03:47:52;100711.78;;;12.76;81.76
81033;BME280;70514;52.478;6.102;2023-11-19T03:50:20;100710.09;;;12.69;83.86
81033;BME280;70514;52.478;6.102;2023-11-19T03:52:48;100712.69;;;12.69;80.63
81033;BME280;70514;52.478;6.102;2023-11-19T03:55:16;100695.38;;;12.80;83.35
81033;BME280;70514;52.478;6.102;2023-11-19T03:57:43;100694.59;;;12.69;81.97
81033;BME280;70514;52.478;6.102;2023-11-19T04:00:11;100696.28;;;12.76;79.88
81033;BME280;70514;52.478;6.102;2023-11-19T04:02:41;100697.97;;;12.86;78.44
81033;BME280;70514;52.478;6.102;2023-11-19T04:05:09;100701.44;;;12.76;82.20
81033;BME280;70514;52.478;6.102;2023-11-19T04:07:40;100695.50;;;12.42;84.96
81033;BME280;70514;52.478;6.102;2023-11-19T04:10:08;100703.25;;;12.31;84.65
81033;BME280;70514;52.478;6.102;2023-11-19T04:12:36;100702.38;;;12.23;84.82
81033;BME280;70514;52.478;6.102;2023-11-19T04:15:04;100702.38;;;12.45;85.00
81033;BME280;70514;52.478;6.102;2023-11-19T04:17:32;100698.91;;;12.52;82.15
81033;BME280;70514;52.478;6.102;2023-11-19T04:20:00;100686.00;;;12.64;81.42
81033;BME280;70514;52.478;6.102;2023-11-19T04:22:27;100698.84;;;12.88;79.29
81033;BME280;70514;52.478;6.102;2023-11-19T04:24:55;100698.03;;;12.68;80.65
81033;BME280;70514;52.478;6.102;2023-11-19T04:27:23;100697.16;;;12.64;82.20
81033;BME280;70514;52.478;6.102;2023-11-19T04:29:51;100697.16;;;12.66;81.56
81033;BME280;70514;52.478;6.102;2023-11-19T04:32:19;100694.56;;;12.64;81.22
81033;BME280;70514;52.478;6.102;2023-11-19T04:34:47;100695.41;;;12.69;80.68
81033;BME280;70514;52.478;6.102;2023-11-19T04:37:15;100697.19;;;12.51;82.12
81033;BME280;70514;52.478;6.102;2023-11-19T04:39:44;100717.00;;;12.52;83.25
81033;BME280;70514;52.478;6.102;2023-11-19T04:42:13;100724.75;;;12.64;80.51
81033;BME280;70514;52.478;6.102;2023-11-19T04:44:44;100726.44;;;12.78;80.16
81033;BME280;70514;52.478;6.102;2023-11-19T04:47:12;100724.72;;;12.79;79.01
81033;BME280;70514;52.478;6.102;2023-11-19T04:49:41;100727.31;;;12.74;80.45
81033;BME280;70514;52.478;6.102;2023-11-19T04:52:12;100735.03;;;12.77;79.67
81033;BME280;70514;52.478;6.102;2023-11-19T04:54:40;100728.16;;;12.64;81.21
81033;BME280;70514;52.478;6.102;2023-11-19T04:57:09;100719.53;;;12.77;80.14
81033;BME280;70514;52.478;6.102;2023-11-19T04:59:40;100712.63;;;12.83;79.52
81033;BME280;70514;52.478;6.102;2023-11-19T05:02:09;100704.88;;;12.75;79.76
81033;BME280;70514;52.478;6.102;2023-11-19T05:04:37;100709.22;;;12.71;83.44
81033;BME280;70514;52.478;6.102;2023-11-19T05:07:05;100715.22;;;12.81;79.49
81033;BME280;70514;52.478;6.102;2023-11-19T05:09:34;100707.53;;;12.51;81.76
81033;BME280;70514;52.478;6.102;2023-11-19T05:12:02;100717.00;;;12.47;82.97
81033;BME280;70514;52.478;6.102;2023-11-19T05:14:30;100716.13;;;12.59;80.12
81033;BME280;70514;52.478;6.102;2023-11-19T05:16:58;100710.09;;;12.67;80.56
81033;BME280;70514;52.478;6.102;2023-11-19T05:19:26;100716.03;;;12.92;77.94
81033;BME280;70514;52.478;6.102;2023-11-19T05:21:53;100716.97;;;12.71;80.91
81033;BME280;70514;52.478;6.102;2023-11-19T05:24:21;100716.06;;;12.82;80.03
81033;BME280;70514;52.478;6.102;2023-11-19T05:26:49;100722.13;;;12.73;80.00
81033;BME280;70514;52.478;6.102;2023-11-19T05:29:18;100722.19;;;12.47;82.38
81033;BME280;70514;52.478;6.102;2023-11-19T05:31:46;100721.28;;;12.66;80.94
81033;BME280;70514;52.478;6.102;2023-11-19T05:34:15;100726.47;;;12.51;81.36
81033;BME280;70514;52.478;6.102;2023-11-19T05:36:43;100741.94;;;12.66;83.00
81033;BME280;70514;52.478;6.102;2023-11-19T05:39:11;100738.50;;;12.57;80.19
81033;BME280;70514;52.478;6.102;2023-11-19T05:41:39;100734.22;;;12.59;80.47
81033;BME280;70514;52.478;6.102;2023-11-19T05:44:06;100735.06;;;12.46;82.33
81033;BME280;70514;52.478;6.102;2023-11-19T05:46:34;100741.97;;;12.30;85.16
81033;BME280;70514;52.478;6.102;2023-11-19T05:49:08;100733.38;;;12.35;81.36
81033;BME280;70514;52.478;6.102;2023-11-19T05:51:40;100740.22;;;12.49;81.27
81033;BME280;70514;52.478;6.102;2023-11-19T05:54:09;100746.25;;;12.63;80.39
81033;BME280;70514;52.478;6.102;2023-11-19T05:56:37;100743.69;;;12.39;82.93
81033;BME280;70514;52.478;6.102;2023-11-19T05:59:05;100740.22;;;12.49;80.98
81033;BME280;70514;52.478;6.102;2023-11-19T06:01:42;100749.69;;;12.65;80.85
81033;BME280;70514;52.478;6.102;2023-11-19T06:04:10;100744.53;;;12.45;81.07
81033;BME280;70514;52.478;6.102;2023-11-19T06:06:37;100741.94;;;12.65;81.04
81033;BME280;70514;52.478;6.102;2023-11-19T06:09:05;100737.66;;;12.62;79.89
81033;BME280;70514;52.478;6.102;2023-11-19T06:11:36;100740.22;;;12.56;80.28
81033;BME280;70514;52.478;6.102;2023-11-19T06:14:04;100729.03;;;12.50;80.31
81033;BME280;70514;52.478;6.102;2023-11-19T06:16:33;100737.66;;;12.46;84.01
81033;BME280;70514;52.478;6.102;2023-11-19T06:19:01;100737.66;;;12.58;80.09
81033;BME280;70514;52.478;6.102;2023-11-19T06:21:29;100735.09;;;12.43;82.42
81033;BME280;70514;52.478;6.102;2023-11-19T06:23:56;100742.81;;;12.52;80.14
81033;BME280;70514;52.478;6.102;2023-11-19T06:26:25;100730.78;;;12.51;80.18
81033;BME280;70514;52.478;6.102;2023-11-19T06:28:53;100734.22;;;12.42;81.35
81033;BME280;70514;52.478;6.102;2023-11-19T06:31:21;100725.63;;;12.40;81.70
81033;BME280;70514;52.478;6.102;2023-11-19T06:33:49;100726.47;;;12.53;79.82
81033;BME280;70514;52.478;6.102;2023-11-19T06:36:17;100734.22;;;12.39;82.28
81033;BME280;70514;52.478;6.102;2023-11-19T06:38:45;100741.97;;;12.51;81.93
81033;BME280;70514;52.478;6.102;2023-11-19T06:41:12;100732.47;;;12.49;81.18
81033;BME280;70514;52.478;6.102;2023-11-19T06:43:40;100744.56;;;12.59;80.02
81033;BME280;70514;52.478;6.102;2023-11-19T06:46:16;100744.53;;;12.66;79.87
81033;BME280;70514;52.478;6.102;2023-11-19T06:48:44;100747.13;;;12.51;81.98
81033;BME280;70514;52.478;6.102;2023-11-19T06:51:12;100746.28;;;12.46;81.69
81033;BME280;70514;52.478;6.102;2023-11-19T06:53:42;100754.88;;;12.47;80.91
81033;BME280;70514;52.478;6.102;2023-11-19T06:56:22;100746.25;;;12.73;78.56
81033;BME280;70514;52.478;6.102;2023-11-19T06:58:50;100748.84;;;12.52;81.13
81033;BME280;70514;52.478;6.102;2023-11-19T07:01:19;100746.28;;;12.42;80.03
81033;BME280;70514;52.478;6.102;2023-11-19T07:03:48;100749.75;;;12.22;81.11
81033;BME280;70514;52.478;6.102;2023-11-19T07:06:16;100750.56;;;12.29;81.00
81033;BME280;70514;52.478;6.102;2023-11-19T07:08:44;100754.88;;;12.30;81.45
81033;BME280;70514;52.478;6.102;2023-11-19T07:11:13;100753.13;;;12.49;80.42
81033;BME280;70514;52.478;6.102;2023-11-19T07:13:42;100756.59;;;12.40;82.92
81033;BME280;70514;52.478;6.102;2023-11-19T07:16:11;100766.09;;;12.43;80.68
81033;BME280;70514;52.478;6.102;2023-11-19T07:18:38;100765.19;;;12.50;80.54
81033;BME280;70514;52.478;6.102;2023-11-19T07:21:06;100772.09;;;12.48;80.39
81033;BME280;70514;52.478;6.102;2023-11-19T07:23:35;100773.81;;;12.58;78.97
81033;BME280;70514;52.478;6.102;2023-11-19T07:26:05;100780.72;;;12.51;79.93
81033;BME280;70514;52.478;6.102;2023-11-19T07:28:36;100771.22;;;12.49;80.28
81033;BME280;70514;52.478;6.102;2023-11-19T07:31:04;100781.56;;;12.58;80.07
81033;BME280;70514;52.478;6.102;2023-11-19T07:33:32;100794.47;;;12.46;79.77
81033;BME280;70514;52.478;6.102;2023-11-19T07:36:00;100795.34;;;12.42;80.24
81033;BME280;70514;52.478;6.102;2023-11-19T07:38:28;100784.16;;;12.58;79.46
81033;BME280;70514;52.478;6.102;2023-11-19T07:40:56;100799.63;;;12.50;80.39
81033;BME280;70514;52.478;6.102;2023-11-19T07:43:24;100799.63;;;12.55;79.95
81033;BME280;70514;52.478;6.102;2023-11-19T07:45:52;100793.63;;;12.48;80.66
81033;BME280;70514;52.478;6.102;2023-11-19T07:48:20;100802.22;;;12.46;81.39
81033;BME280;70514;52.478;6.102;2023-11-19T07:50:52;100797.91;;;12.78;79.04
81033;BME280;70514;52.478;6.102;2023-11-19T07:53:20;100801.34;;;12.72;78.94
81033;BME280;70514;52.478;6.102;2023-11-19T07:55:48;100802.22;;;12.76;79.11
81033;BME280;70514;52.478;6.102;2023-11-19T07:58:16;100811.69;;;12.68;79.25
81033;BME280;70514;52.478;6.102;2023-11-19T08:00:44;100803.94;;;12.68;79.25
81033;BME280;70514;52.478;6.102;2023-11-19T08:03:12;100814.28;;;12.71;78.65
81033;BME280;70514;52.478;6.102;2023-11-19T08:05:40;100815.13;;;12.65;78.66
81033;BME280;70514;52.478;6.102;2023-11-19T08:08:07;100805.69;;;12.69;78.73
81033;BME280;70514;52.478;6.102;2023-11-19T08:10:35;100810.81;;;12.66;79.31
81033;BME280;70514;52.478;6.102;2023-11-19T08:13:03;100809.97;;;12.58;79.40
81033;BME280;70514;52.478;6.102;2023-11-19T08:15:31;100803.09;;;12.51;80.97
81033;BME280;70514;52.478;6.102;2023-11-19T08:17:59;100801.38;;;12.56;80.19
81033;BME280;70514;52.478;6.102;2023-11-19T08:20:27;100801.34;;;12.80;79.19
81033;BME280;70514;52.478;6.102;2023-11-19T08:22:55;100807.34;;;12.85;78.42
81033;BME280;70514;52.478;6.102;2023-11-19T08:25:22;100808.22;;;12.90;78.30
81033;BME280;70514;52.478;6.102;2023-11-19T08:27:50;100810.81;;;12.83;79.57
81033;BME280;70514;52.478;6.102;2023-11-19T08:30:19;100804.78;;;12.88;78.68
81033;BME280;70514;52.478;6.102;2023-11-19T08:32:46;100801.38;;;12.74;78.75
81033;BME280;70514;52.478;6.102;2023-11-19T08:35:14;100791.00;;;12.77;78.10
81033;BME280;70514;52.478;6.102;2023-11-19T08:37:43;100794.44;;;12.88;77.58
81033;BME280;70514;52.478;6.102;2023-11-19T08:40:13;100796.19;;;12.72;79.40
81033;BME280;70514;52.478;6.102;2023-11-19T08:42:44;100797.91;;;12.75;78.20
81033;BME280;70514;52.478;6.102;2023-11-19T08:45:12;100803.94;;;12.78;78.17
81033;BME280;70514;52.478;6.102;2023-11-19T08:47:40;100806.53;;;12.72;79.54
81033;BME280;70514;52.478;6.102;2023-11-19T08:50:08;100799.63;;;12.84;78.88
81033;BME280;70514;52.478;6.102;2023-11-19T08:52:37;100801.34;;;12.95;78.32
81033;BME280;70514;52.478;6.102;2023-11-19T08:55:05;100807.34;;;12.97;78.41
81033;BME280;70514;52.478;6.102;2023-11-19T08:57:33;100806.50;;;13.15;77.82
81033;BME280;70514;52.478;6.102;2023-11-19T09:00:01;100795.28;;;13.05;78.72
81033;BME280;70514;52.478;6.102;2023-11-19T09:02:30;100799.59;;;13.03;78.55
81033;BME280;70514;52.478;6.102;2023-11-19T09:05:00;100803.03;;;13.17;77.28
81033;BME280;70514;52.478;6.102;2023-11-19T09:07:27;100799.50;;;13.40;76.78
81033;BME280;70514;52.478;6.102;2023-11-19T09:09:55;100812.28;;;13.76;74.34
81033;BME280;70514;52.478;6.102;2023-11-19T09:12:23;100820.03;;;13.75;74.61
81033;BME280;70514;52.478;6.102;2023-11-19T09:14:51;100812.38;;;13.53;74.99
81033;BME280;70514;52.478;6.102;2023-11-19T09:17:19;100803.81;;;13.39;75.62
81033;BME280;70514;52.478;6.102;2023-11-19T09:19:46;100808.13;;;13.42;75.50
81033;BME280;70514;52.478;6.102;2023-11-19T09:22:14;100808.13;;;13.39;76.06
81033;BME280;70514;52.478;6.102;2023-11-19T09:24:42;100815.00;;;13.43;76.04
81033;BME280;70514;52.478;6.102;2023-11-19T09:27:11;100816.75;;;13.32;76.84
81033;BME280;70514;52.478;6.102;2023-11-19T09:29:39;100820.19;;;13.46;75.94
81033;BME280;70514;52.478;6.102;2023-11-19T09:32:07;100813.28;;;13.43;75.51
81033;BME280;70514;52.478;6.102;2023-11-19T09:34:35;100815.00;;;13.52;75.12
81033;BME280;70514;52.478;6.102;2023-11-19T09:37:03;100802.91;;;13.54;75.29
81033;BME280;70514;52.478;6.102;2023-11-19T09:39:31;100818.44;;;13.51;76.25
81033;BME280;70514;52.478;6.102;2023-11-19T09:41:59;100808.94;;;13.56;76.01
81033;BME280;70514;52.478;6.102;2023-11-19T09:44:27;100818.19;;;14.04;73.30
81033;BME280;70514;52.478;6.102;2023-11-19T09:46:56;100802.59;;;14.12;73.45
81033;BME280;70514;52.478;6.102;2023-11-19T09:49:26;100806.09;;;14.00;74.19
81033;BME280;70514;52.478;6.102;2023-11-19T09:51:57;100799.97;;;14.15;73.24
81033;BME280;70514;52.478;6.102;2023-11-19T09:54:26;100795.78;;;13.95;72.92
81033;BME280;70514;52.478;6.102;2023-11-19T09:56:55;100810.53;;;13.80;73.32
81033;BME280;70514;52.478;6.102;2023-11-19T09:59:28;100802.81;;;13.72;73.58
81033;BME280;70514;52.478;6.102;2023-11-19T10:01:56;100807.97;;;13.75;74.63
81033;BME280;70514;52.478;6.102;2023-11-19T10:04:25;100808.00;;;13.72;73.97
81033;BME280;70514;52.478;6.102;2023-11-19T10:06:54;100819.19;;;13.77;73.90
81033;BME280;70514;52.478;6.102;2023-11-19T10:09:22;100808.84;;;13.70;74.37
81033;BME280;70514;52.478;6.102;2023-11-19T10:11:50;100806.41;;;13.39;75.91
81033;BME280;70514;52.478;6.102;2023-11-19T10:14:23;100796.94;;;13.34;76.51
81033;BME280;70514;52.478;6.102;2023-11-19T10:16:51;100809.06;;;13.16;80.33
81033;BME280;70514;52.478;6.102;2023-11-19T10:19:19;100792.69;;;13.04;80.06
81033;BME280;70514;52.478;6.102;2023-11-19T10:21:48;100799.56;;;13.09;80.46
81033;BME280;70514;52.478;6.102;2023-11-19T10:24:16;100794.41;;;13.14;77.11
81033;BME280;70514;52.478;6.102;2023-11-19T10:26:47;100789.19;;;13.29;76.58
81033;BME280;70514;52.478;6.102;2023-11-19T10:29:14;100790.97;;;13.15;77.24
81033;BME280;70514;52.478;6.102;2023-11-19T10:31:55;100790.97;;;13.13;77.58
81033;BME280;70514;52.478;6.102;2023-11-19T10:34:25;100794.41;;;13.25;76.02
81033;BME280;70514;52.478;6.102;2023-11-19T10:36:53;100790.91;;;13.32;76.03
81033;BME280;70514;52.478;6.102;2023-11-19T10:39:21;100795.19;;;13.40;76.03
81033;BME280;70514;52.478;6.102;2023-11-19T10:41:51;100796.84;;;13.61;75.79
81033;BME280;70514;52.478;6.102;2023-11-19T10:44:34;100795.97;;;13.62;77.56
81033;BME280;70514;52.478;6.102;2023-11-19T10:47:05;100796.78;;;13.72;74.88
81033;BME280;70514;52.478;6.102;2023-11-19T10:49:33;100794.19;;;13.70;74.33
81033;BME280;70514;52.478;6.102;2023-11-19T10:52:02;100794.25;;;13.61;75.32
81033;BME280;70514;52.478;6.102;2023-11-19T10:54:32;100792.53;;;13.58;75.11
81033;BME280;70514;52.478;6.102;2023-11-19T10:57:02;100781.34;;;13.56;74.77
81033;BME280;70514;52.478;6.102;2023-11-19T10:59:31;100792.53;;;13.54;75.70
81033;BME280;70514;52.478;6.102;2023-11-19T11:02:03;100794.19;;;13.69;74.42
81033;BME280;70514;52.478;6.102;2023-11-19T11:04:39;100799.41;;;13.64;74.58
81033;BME280;70514;52.478;6.102;2023-11-19T11:07:09;100799.47;;;13.52;75.23
81033;BME280;70514;52.478;6.102;2023-11-19T11:09:37;100789.16;;;13.40;75.60
81033;BME280;70514;52.478;6.102;2023-11-19T11:12:06;100785.72;;;13.38;75.87
81033;BME280;70514;52.478;6.102;2023-11-19T11:14:37;100786.53;;;13.49;76.81
81033;BME280;70514;52.478;6.102;2023-11-19T11:17:09;100787.38;;;13.55;75.30
81033;BME280;70514;52.478;6.102;2023-11-19T11:19:39;100781.41;;;13.40;80.66
81033;BME280;70514;52.478;6.102;2023-11-19T11:22:07;100789.16;;;13.40;80.72
81033;BME280;70514;52.478;6.102;2023-11-19T11:27:49;100777.97;;;13.41;78.00
81033;BME280;70514;52.478;6.102;2023-11-19T11:33:26;100793.53;;;13.10;82.37
81033;BME280;70514;52.478;6.102;2023-11-19T11:36:11;100784.97;;;12.64;85.68
81033;BME280;70514;52.478;6.102;2023-11-19T11:38:41;100777.28;;;12.26;92.79
81033;BME280;70514;52.478;6.102;2023-11-19T11:41:23;100779.81;;;12.02;93.91
81033;BME280;70514;52.478;6.102;2023-11-19T11:43:56;100779.81;;;12.04;92.00
81033;BME280;70514;52.478;6.102;2023-11-19T11:49:07;100781.56;;;12.11;87.67
81033;BME280;70514;52.478;6.102;2023-11-19T12:02:14;100773.81;;;12.64;85.08
81033;BME280;70514;52.478;6.102;2023-11-19T12:04:42;100765.16;;;12.80;83.04
81033;BME280;70514;52.478;6.102;2023-11-19T12:07:15;100770.34;;;12.71;84.75
81033;BME280;70514;52.478;6.102;2023-11-19T12:09:48;100764.34;;;12.69;81.46
81033;BME280;70514;52.478;6.102;2023-11-19T12:12:20;100763.47;;;12.79;81.39
81033;BME280;70514;52.478;6.102;2023-11-19T12:15:02;100757.41;;;12.80;83.53
81033;BME280;70514;52.478;6.102;2023-11-19T12:20:10;100757.44;;;12.78;86.68
81033;BME280;70514;52.478;6.102;2023-11-19T12:22:40;100762.59;;;12.85;82.65
81033;BME280;70514;52.478;6.102;2023-11-19T12:25:10;100760.81;;;13.09;79.17
81033;BME280;70514;52.478;6.102;2023-11-19T12:27:50;100753.06;;;13.14;81.43
81033;BME280;70514;52.478;6.102;2023-11-19T12:30:25;100766.78;;;13.27;78.36
81033;BME280;70514;52.478;6.102;2023-11-19T12:32:54;100759.03;;;13.22;79.48
81033;BME280;70514;52.478;6.102;2023-11-19T12:35:23;100761.63;;;13.28;81.55
81033;BME280;70514;52.478;6.102;2023-11-19T12:37:52;100758.13;;;13.40;77.50
81033;BME280;70514;52.478;6.102;2023-11-19T12:40:22;100753.84;;;13.33;78.25
81033;BME280;70514;52.478;6.102;2023-11-19T12:42:52;100754.66;;;13.42;77.27
81033;BME280;70514;52.478;6.102;2023-11-19T12:45:22;100755.53;;;13.46;76.66
81033;BME280;70514;52.478;6.102;2023-11-19T12:48:08;100759.84;;;13.47;79.27
81033;BME280;70514;52.478;6.102;2023-11-19T12:50:55;100754.53;;;13.65;75.54
81033;BME280;70514;52.478;6.102;2023-11-19T12:53:25;100754.56;;;13.59;75.95
81033;BME280;70514;52.478;6.102;2023-11-19T12:55:53;100748.66;;;13.40;77.50
81033;BME280;70514;52.478;6.102;2023-11-19T12:58:32;100764.22;;;13.31;78.76
81033;BME280;70514;52.478;6.102;2023-11-19T13:01:07;100765.06;;;13.30;78.32
81033;BME280;70514;52.478;6.102;2023-11-19T13:03:37;100764.13;;;13.45;77.52
81033;BME280;70514;52.478;6.102;2023-11-19T13:06:08;100768.53;;;13.26;79.67
81033;BME280;70514;52.478;6.102;2023-11-19T13:08:40;100763.34;;;13.22;78.45
81033;BME280;70514;52.478;6.102;2023-11-19T13:11:08;100757.38;;;12.91;82.71
81033;BME280;70514;52.478;6.102;2023-11-19T13:13:55;100755.72;;;12.74;84.83
81033;BME280;70514;52.478;6.102;2023-11-19T13:16:24;100752.28;;;12.63;85.08
81033;BME280;70514;52.478;6.102;2023-11-19T13:18:53;100747.06;;;12.89;80.95
81033;BME280;70514;52.478;6.102;2023-11-19T13:21:21;100752.19;;;13.10;79.27
81033;BME280;70514;52.478;6.102;2023-11-19T13:23:49;100746.22;;;12.84;83.28